sensor_id;sensor_type;location;lat;lon;timestamp;P1;durP1;ratioP1;P2;durP2;ratioP2
48881;SDS011;57063;51.406;-2.402;2024-02-16T00:01:57;11.23;;;8.05;;
48881;SDS011;57063;51.406;-2.402;2024-02-16T00:04:23;12.05;;;8.88;;
48881;SDS011;57063;51.406;-2.402;2024-02-16T00:06:49;12.20;;;8.27;;
48881;SDS011;57063;51.406;-2.402;2024-02-16T00:09:15;14.00;;;8.52;;
48881;SDS011;57063;51.406;-2.402;2024-02-16T00:11:42;10.40;;;7.72;;
48881;SDS011;57063;51.406;-2.402;2024-02-16T00:14:08;16.00;;;7.47;;
48881;SDS011;57063;51.406;-2.402;2024-02-16T00:16:34;12.93;;;8.18;;
48881;SDS011;57063;51.406;-2.402;2024-02-16T00:19:00;10.77;;;7.53;;
48881;SDS011;57063;51.406;-2.402;2024-02-16T00:21:26;11.00;;;8.00;;
48881;SDS011;57063;51.406;-2.402;2024-02-16T00:23:52;10.70;;;7.50;;
48881;SDS011;57063;51.406;-2.402;2024-02-16T00:26:18;11.40;;;8.30;;
48881;SDS011;57063;51.406;-2.402;2024-02-16T00:28:44;9.95;;;6.57;;
48881;SDS011;57063;51.406;-2.402;2024-02-16T00:31:11;10.52;;;7.63;;
48881;SDS011;57063;51.406;-2.402;2024-02-16T00:33:37;13.00;;;8.32;;
48881;SDS011;57063;51.406;-2.402;2024-02-16T00:36:03;10.95;;;7.43;;
48881;SDS011;57063;51.406;-2.402;2024-02-16T00:38:28;9.55;;;7.10;;
48881;SDS011;57063;51.406;-2.402;2024-02-16T00:40:54;10.25;;;7.25;;
48881;SDS011;57063;51.406;-2.402;2024-02-16T00:43:20;13.25;;;8.82;;
48881;SDS011;57063;51.406;-2.402;2024-02-16T00:45:46;13.20;;;8.27;;
48881;SDS011;57063;51.406;-2.402;2024-02-16T00:48:14;13.02;;;8.52;;
48881;SDS011;57063;51.406;-2.402;2024-02-16T00:50:41;17.35;;;10.40;;
48881;SDS011;57063;51.406;-2.402;2024-02-16T00:53:07;19.98;;;11.10;;
48881;SDS011;57063;51.406;-2.402;2024-02-16T00:55:35;23.27;;;11.13;;
48881;SDS011;57063;51.406;-2.402;2024-02-16T00:58:02;19.15;;;10.63;;
48881;SDS011;57063;51.406;-2.402;2024-02-16T01:00:28;19.70;;;11.23;;
48881;SDS011;57063;51.406;-2.402;2024-02-16T01:02:56;22.80;;;11.75;;
48881;SDS011;57063;51.406;-2.402;2024-02-16T01:05:24;19.20;;;12.30;;
48881;SDS011;57063;51.406;-2.402;2024-02-16T01:07:52;17.98;;;10.68;;
48881;SDS011;57063;51.406;-2.402;2024-02-16T01:10:19;20.83;;;12.10;;
48881;SDS011;57063;51.406;-2.402;2024-02-16T01:12:45;24.13;;;10.70;;
48881;SDS011;57063;51.406;-2.402;2024-02-16T01:15:14;18.83;;;9.05;;
48881;SDS011;57063;51.406;-2.402;2024-02-16T01:17:44;19.33;;;9.80;;
48881;SDS011;57063;51.406;-2.402;2024-02-16T01:20:17;18.45;;;9.60;;
48881;SDS011;57063;51.406;-2.402;2024-02-16T01:22:46;13.43;;;8.93;;
48881;SDS011;57063;51.406;-2.402;2024-02-16T01:25:18;13.70;;;8.15;;
48881;SDS011;57063;51.406;-2.402;2024-02-16T01:27:43;14.23;;;7.95;;
48881;SDS011;57063;51.406;-2.402;2024-02-16T01:50:57;13.43;;;7.03;;
48881;SDS011;57063;51.406;-2.402;2024-02-16T01:53:24;12.00;;;6.45;;
48881;SDS011;57063;51.406;-2.402;2024-02-16T01:55:50;12.88;;;7.68;;
48881;SDS011;57063;51.406;-2.402;2024-02-16T01:58:16;11.60;;;6.32;;
48881;SDS011;57063;51.406;-2.402;2024-02-16T02:00:42;15.93;;;7.03;;
48881;SDS011;57063;51.406;-2.402;2024-02-16T02:03:07;17.85;;;7.90;;
48881;SDS011;57063;51.406;-2.402;2024-02-16T02:05:33;11.50;;;6.28;;
48881;SDS011;57063;51.406;-2.402;2024-02-16T02:07:59;13.93;;;7.18;;
48881;SDS011;57063;51.406;-2.402;2024-02-16T02:10:33;17.77;;;7.95;;
48881;SDS011;57063;51.406;-2.402;2024-02-16T02:12:59;21.92;;;8.27;;
48881;SDS011;57063;51.406;-2.402;2024-02-16T02:15:25;17.88;;;8.25;;
48881;SDS011;57063;51.406;-2.402;2024-02-16T02:17:50;14.57;;;7.88;;
48881;SDS011;57063;51.406;-2.402;2024-02-16T02:20:16;15.45;;;8.45;;
48881;SDS011;57063;51.406;-2.402;2024-02-16T02:22:42;20.58;;;9.23;;
48881;SDS011;57063;51.406;-2.402;2024-02-16T02:25:08;12.23;;;7.70;;
48881;SDS011;57063;51.406;-2.402;2024-02-16T02:27:38;12.05;;;7.85;;
48881;SDS011;57063;51.406;-2.402;2024-02-16T02:30:04;13.60;;;7.10;;
48881;SDS011;57063;51.406;-2.402;2024-02-16T02:32:31;27.15;;;7.80;;
48881;SDS011;57063;51.406;-2.402;2024-02-16T02:34:57;17.77;;;6.55;;
48881;SDS011;57063;51.406;-2.402;2024-02-16T02:37:24;12.27;;;6.95;;
48881;SDS011;57063;51.406;-2.402;2024-02-16T02:39:50;13.75;;;6.95;;
48881;SDS011;57063;51.406;-2.402;2024-02-16T02:42:19;14.30;;;7.53;;
48881;SDS011;57063;51.406;-2.402;2024-02-16T02:44:46;16.77;;;7.28;;
48881;SDS011;57063;51.406;-2.402;2024-02-16T02:47:15;16.25;;;6.68;;
48881;SDS011;57063;51.406;-2.402;2024-02-16T02:49:47;13.27;;;6.78;;
48881;SDS011;57063;51.406;-2.402;2024-02-16T02:52:13;18.23;;;8.77;;
48881;SDS011;57063;51.406;-2.402;2024-02-16T02:54:39;20.85;;;8.40;;
48881;SDS011;57063;51.406;-2.402;2024-02-16T02:57:06;15.70;;;7.47;;
48881;SDS011;57063;51.406;-2.402;2024-02-16T02:59:34;21.10;;;7.35;;
48881;SDS011;57063;51.406;-2.402;2024-02-16T03:01:59;19.75;;;8.50;;
48881;SDS011;57063;51.406;-2.402;2024-02-16T03:04:26;16.27;;;8.50;;
48881;SDS011;57063;51.406;-2.402;2024-02-16T03:06:53;24.23;;;8.82;;
48881;SDS011;57063;51.406;-2.402;2024-02-16T03:09:19;19.67;;;7.45;;
48881;SDS011;57063;51.406;-2.402;2024-02-16T03:11:50;19.40;;;8.07;;
48881;SDS011;57063;51.406;-2.402;2024-02-16T03:14:19;27.00;;;10.15;;
48881;SDS011;57063;51.406;-2.402;2024-02-16T03:16:45;21.92;;;9.05;;
48881;SDS011;57063;51.406;-2.402;2024-02-16T03:19:11;21.90;;;8.55;;
48881;SDS011;57063;51.406;-2.402;2024-02-16T03:21:47;17.45;;;7.47;;
48881;SDS011;57063;51.406;-2.402;2024-02-16T03:24:22;27.85;;;8.05;;
48881;SDS011;57063;51.406;-2.402;2024-02-16T04:08:13;26.65;;;8.95;;
48881;SDS011;57063;51.406;-2.402;2024-02-16T06:46:43;29.00;;;5.90;;
48881;SDS011;57063;51.406;-2.402;2024-02-16T07:12:25;20.98;;;3.95;;
48881;SDS011;57063;51.406;-2.402;2024-02-16T07:14:51;20.08;;;3.58;;
48881;SDS011;57063;51.406;-2.402;2024-02-16T07:17:16;20.83;;;3.72;;
48881;SDS011;57063;51.406;-2.402;2024-02-16T07:19:42;15.20;;;3.38;;
48881;SDS011;57063;51.406;-2.402;2024-02-16T07:22:07;19.00;;;5.15;;
48881;SDS011;57063;51.406;-2.402;2024-02-16T07:24:33;15.95;;;3.00;;
48881;SDS011;57063;51.406;-2.402;2024-02-16T07:27:08;22.60;;;2.88;;
48881;SDS011;57063;51.406;-2.402;2024-02-16T07:29:37;23.33;;;3.38;;
48881;SDS011;57063;51.406;-2.402;2024-02-16T07:32:11;22.63;;;2.95;;
48881;SDS011;57063;51.406;-2.402;2024-02-16T07:34:45;26.88;;;3.55;;
48881;SDS011;57063;51.406;-2.402;2024-02-16T07:37:12;20.23;;;2.95;;
48881;SDS011;57063;51.406;-2.402;2024-02-16T07:39:38;18.48;;;3.47;;
48881;SDS011;57063;51.406;-2.402;2024-02-16T07:42:06;17.63;;;3.03;;
48881;SDS011;57063;51.406;-2.402;2024-02-16T07:44:35;18.40;;;4.70;;
48881;SDS011;57063;51.406;-2.402;2024-02-16T07:47:02;18.65;;;3.95;;
48881;SDS011;57063;51.406;-2.402;2024-02-16T07:49:28;14.50;;;1.95;;
48881;SDS011;57063;51.406;-2.402;2024-02-16T07:51:58;12.45;;;2.08;;
48881;SDS011;57063;51.406;-2.402;2024-02-16T07:54:23;11.98;;;2.00;;
48881;SDS011;57063;51.406;-2.402;2024-02-16T07:56:49;14.45;;;1.75;;
48881;SDS011;57063;51.406;-2.402;2024-02-16T07:59:15;17.15;;;2.92;;
48881;SDS011;57063;51.406;-2.402;2024-02-16T08:01:40;22.08;;;2.85;;
48881;SDS011;57063;51.406;-2.402;2024-02-16T08:04:09;19.17;;;2.28;;
48881;SDS011;57063;51.406;-2.402;2024-02-16T08:06:34;21.45;;;2.15;;
48881;SDS011;57063;51.406;-2.402;2024-02-16T08:09:00;14.18;;;1.40;;
48881;SDS011;57063;51.406;-2.402;2024-02-16T08:11:26;13.13;;;1.58;;
48881;SDS011;57063;51.406;-2.402;2024-02-16T08:13:52;12.00;;;1.63;;
48881;SDS011;57063;51.406;-2.402;2024-02-16T08:16:18;11.63;;;1.33;;
48881;SDS011;57063;51.406;-2.402;2024-02-16T08:18:44;7.95;;;1.10;;
48881;SDS011;57063;51.406;-2.402;2024-02-16T08:21:10;15.27;;;2.00;;
48881;SDS011;57063;51.406;-2.402;2024-02-16T08:23:36;21.08;;;1.70;;
48881;SDS011;57063;51.406;-2.402;2024-02-16T08:26:03;11.05;;;1.65;;
48881;SDS011;57063;51.406;-2.402;2024-02-16T08:28:28;15.52;;;2.28;;
48881;SDS011;57063;51.406;-2.402;2024-02-16T08:30:54;13.70;;;1.88;;
48881;SDS011;57063;51.406;-2.402;2024-02-16T08:33:22;16.33;;;1.70;;
48881;SDS011;57063;51.406;-2.402;2024-02-16T08:35:48;19.55;;;2.08;;
48881;SDS011;57063;51.406;-2.402;2024-02-16T08:38:15;13.25;;;2.03;;
48881;SDS011;57063;51.406;-2.402;2024-02-16T08:40:41;14.23;;;1.55;;
48881;SDS011;57063;51.406;-2.402;2024-02-16T08:43:06;12.80;;;4.50;;
48881;SDS011;57063;51.406;-2.402;2024-02-16T08:45:33;12.15;;;1.52;;
48881;SDS011;57063;51.406;-2.402;2024-02-16T08:48:00;14.57;;;2.05;;
48881;SDS011;57063;51.406;-2.402;2024-02-16T08:50:29;14.90;;;1.90;;
48881;SDS011;57063;51.406;-2.402;2024-02-16T08:52:55;20.98;;;2.75;;
48881;SDS011;57063;51.406;-2.402;2024-02-16T08:55:21;10.82;;;1.73;;
48881;SDS011;57063;51.406;-2.402;2024-02-16T08:57:47;18.98;;;2.47;;
48881;SDS011;57063;51.406;-2.402;2024-02-16T09:00:14;21.83;;;1.60;;
48881;SDS011;57063;51.406;-2.402;2024-02-16T09:02:42;19.40;;;3.00;;
48881;SDS011;57063;51.406;-2.402;2024-02-16T09:05:08;25.02;;;2.38;;
48881;SDS011;57063;51.406;-2.402;2024-02-16T09:07:35;14.75;;;3.25;;
48881;SDS011;57063;51.406;-2.402;2024-02-16T09:10:00;14.60;;;2.15;;
48881;SDS011;57063;51.406;-2.402;2024-02-16T09:12:26;21.98;;;5.25;;
48881;SDS011;57063;51.406;-2.402;2024-02-16T09:14:52;23.83;;;2.50;;
48881;SDS011;57063;51.406;-2.402;2024-02-16T09:17:18;20.80;;;2.30;;
48881;SDS011;57063;51.406;-2.402;2024-02-16T09:19:45;24.30;;;5.10;;
48881;SDS011;57063;51.406;-2.402;2024-02-16T09:22:11;19.40;;;2.08;;
48881;SDS011;57063;51.406;-2.402;2024-02-16T09:24:37;21.88;;;4.55;;
48881;SDS011;57063;51.406;-2.402;2024-02-16T09:27:02;14.57;;;2.08;;
48881;SDS011;57063;51.406;-2.402;2024-02-16T09:29:29;21.77;;;2.65;;
48881;SDS011;57063;51.406;-2.402;2024-02-16T09:31:55;21.52;;;2.22;;
48881;SDS011;57063;51.406;-2.402;2024-02-16T09:34:21;13.85;;;1.88;;
48881;SDS011;57063;51.406;-2.402;2024-02-16T09:36:46;14.98;;;2.88;;
48881;SDS011;57063;51.406;-2.402;2024-02-16T09:39:12;30.40;;;3.45;;
48881;SDS011;57063;51.406;-2.402;2024-02-16T09:41:37;15.48;;;2.00;;
48881;SDS011;57063;51.406;-2.402;2024-02-16T09:44:07;13.18;;;1.92;;
48881;SDS011;57063;51.406;-2.402;2024-02-16T09:46:34;20.73;;;3.10;;
48881;SDS011;57063;51.406;-2.402;2024-02-16T09:49:01;16.25;;;2.03;;
48881;SDS011;57063;51.406;-2.402;2024-02-16T09:51:29;18.38;;;2.13;;
48881;SDS011;57063;51.406;-2.402;2024-02-16T09:53:55;13.70;;;2.22;;
48881;SDS011;57063;51.406;-2.402;2024-02-16T09:56:21;16.25;;;3.58;;
48881;SDS011;57063;51.406;-2.402;2024-02-16T09:58:51;15.02;;;2.53;;
48881;SDS011;57063;51.406;-2.402;2024-02-16T10:01:20;20.63;;;2.28;;
48881;SDS011;57063;51.406;-2.402;2024-02-16T10:03:47;11.20;;;1.50;;
48881;SDS011;57063;51.406;-2.402;2024-02-16T10:06:14;7.00;;;1.10;;
48881;SDS011;57063;51.406;-2.402;2024-02-16T10:08:48;10.52;;;1.40;;
48881;SDS011;57063;51.406;-2.402;2024-02-16T10:11:15;12.70;;;2.63;;
48881;SDS011;57063;51.406;-2.402;2024-02-16T10:13:53;14.98;;;2.55;;
48881;SDS011;57063;51.406;-2.402;2024-02-16T10:16:26;11.80;;;2.50;;
48881;SDS011;57063;51.406;-2.402;2024-02-16T10:18:57;15.82;;;2.33;;
48881;SDS011;57063;51.406;-2.402;2024-02-16T10:21:30;13.48;;;1.85;;
48881;SDS011;57063;51.406;-2.402;2024-02-16T10:24:04;17.30;;;2.35;;
48881;SDS011;57063;51.406;-2.402;2024-02-16T10:26:33;10.57;;;1.63;;
48881;SDS011;57063;51.406;-2.402;2024-02-16T10:29:10;9.27;;;1.35;;
48881;SDS011;57063;51.406;-2.402;2024-02-16T10:31:36;14.38;;;1.95;;
48881;SDS011;57063;51.406;-2.402;2024-02-16T10:34:12;9.10;;;1.67;;
48881;SDS011;57063;51.406;-2.402;2024-02-16T10:36:38;11.35;;;1.45;;
48881;SDS011;57063;51.406;-2.402;2024-02-16T10:39:06;8.80;;;1.13;;
48881;SDS011;57063;51.406;-2.402;2024-02-16T10:41:41;14.15;;;1.33;;
48881;SDS011;57063;51.406;-2.402;2024-02-16T10:44:30;12.00;;;1.30;;
48881;SDS011;57063;51.406;-2.402;2024-02-16T10:46:55;8.63;;;1.48;;
48881;SDS011;57063;51.406;-2.402;2024-02-16T10:49:48;10.57;;;1.10;;
48881;SDS011;57063;51.406;-2.402;2024-02-16T10:56:26;9.57;;;2.10;;
48881;SDS011;57063;51.406;-2.402;2024-02-16T17:13:52;24.33;;;3.78;;
48881;SDS011;57063;51.406;-2.402;2024-02-16T17:16:27;27.33;;;2.88;;
48881;SDS011;57063;51.406;-2.402;2024-02-16T17:21:29;20.77;;;2.63;;
48881;SDS011;57063;51.406;-2.402;2024-02-16T17:23:57;24.55;;;3.40;;
48881;SDS011;57063;51.406;-2.402;2024-02-16T17:26:30;26.92;;;4.75;;
48881;SDS011;57063;51.406;-2.402;2024-02-16T17:29:00;21.77;;;3.00;;
48881;SDS011;57063;51.406;-2.402;2024-02-16T17:31:28;19.30;;;2.60;;
48881;SDS011;57063;51.406;-2.402;2024-02-16T17:33:56;18.17;;;2.47;;
48881;SDS011;57063;51.406;-2.402;2024-02-16T17:36:24;21.50;;;2.47;;
48881;SDS011;57063;51.406;-2.402;2024-02-16T17:38:53;16.25;;;1.88;;
48881;SDS011;57063;51.406;-2.402;2024-02-16T17:41:21;16.63;;;2.53;;
48881;SDS011;57063;51.406;-2.402;2024-02-16T17:46:24;14.43;;;2.75;;
48881;SDS011;57063;51.406;-2.402;2024-02-16T17:48:56;11.73;;;2.28;;
48881;SDS011;57063;51.406;-2.402;2024-02-16T17:51:24;14.55;;;2.58;;
48881;SDS011;57063;51.406;-2.402;2024-02-16T17:53:50;10.57;;;3.10;;
48881;SDS011;57063;51.406;-2.402;2024-02-16T17:56:17;16.23;;;2.92;;
48881;SDS011;57063;51.406;-2.402;2024-02-16T17:58:43;16.90;;;2.03;;
48881;SDS011;57063;51.406;-2.402;2024-02-16T18:01:10;14.85;;;1.83;;
48881;SDS011;57063;51.406;-2.402;2024-02-16T18:03:36;18.80;;;2.92;;
48881;SDS011;57063;51.406;-2.402;2024-02-16T18:06:02;13.38;;;1.90;;
48881;SDS011;57063;51.406;-2.402;2024-02-16T18:08:28;12.90;;;2.05;;
48881;SDS011;57063;51.406;-2.402;2024-02-16T18:10:53;15.38;;;2.10;;
48881;SDS011;57063;51.406;-2.402;2024-02-16T18:13:19;19.08;;;2.90;;
48881;SDS011;57063;51.406;-2.402;2024-02-16T18:15:49;20.30;;;2.53;;
48881;SDS011;57063;51.406;-2.402;2024-02-16T18:18:15;15.65;;;1.88;;
48881;SDS011;57063;51.406;-2.402;2024-02-16T18:20:42;12.00;;;2.97;;
48881;SDS011;57063;51.406;-2.402;2024-02-16T18:23:08;20.50;;;5.60;;
48881;SDS011;57063;51.406;-2.402;2024-02-16T18:25:34;17.30;;;4.30;;
48881;SDS011;57063;51.406;-2.402;2024-02-16T18:27:59;17.23;;;3.85;;
48881;SDS011;57063;51.406;-2.402;2024-02-16T18:30:25;15.80;;;2.45;;
48881;SDS011;57063;51.406;-2.402;2024-02-16T18:32:51;21.00;;;3.53;;
48881;SDS011;57063;51.406;-2.402;2024-02-16T18:35:16;18.90;;;4.50;;
48881;SDS011;57063;51.406;-2.402;2024-02-16T18:37:42;26.73;;;4.82;;
48881;SDS011;57063;51.406;-2.402;2024-02-16T18:40:08;11.65;;;3.45;;
48881;SDS011;57063;51.406;-2.402;2024-02-16T18:42:35;22.65;;;3.13;;
48881;SDS011;57063;51.406;-2.402;2024-02-16T18:45:02;19.88;;;4.40;;
48881;SDS011;57063;51.406;-2.402;2024-02-16T18:47:36;22.73;;;3.17;;
48881;SDS011;57063;51.406;-2.402;2024-02-16T18:50:03;20.60;;;3.28;;
48881;SDS011;57063;51.406;-2.402;2024-02-16T18:52:30;20.17;;;4.10;;
48881;SDS011;57063;51.406;-2.402;2024-02-16T18:54:57;25.73;;;3.03;;
48881;SDS011;57063;51.406;-2.402;2024-02-16T18:57:26;13.50;;;2.28;;
48881;SDS011;57063;51.406;-2.402;2024-02-16T18:59:52;18.77;;;2.92;;
48881;SDS011;57063;51.406;-2.402;2024-02-16T19:02:19;14.07;;;3.28;;
48881;SDS011;57063;51.406;-2.402;2024-02-16T19:04:44;31.90;;;4.00;;
48881;SDS011;57063;51.406;-2.402;2024-02-16T19:07:11;29.25;;;5.38;;
48881;SDS011;57063;51.406;-2.402;2024-02-16T19:09:38;19.60;;;3.28;;
48881;SDS011;57063;51.406;-2.402;2024-02-16T19:12:05;14.70;;;3.25;;
48881;SDS011;57063;51.406;-2.402;2024-02-16T19:14:36;30.25;;;4.30;;
48881;SDS011;57063;51.406;-2.402;2024-02-16T19:17:04;26.17;;;3.33;;
48881;SDS011;57063;51.406;-2.402;2024-02-16T19:19:31;25.40;;;3.22;;
48881;SDS011;57063;51.406;-2.402;2024-02-16T19:21:59;24.55;;;3.40;;
48881;SDS011;57063;51.406;-2.402;2024-02-16T19:24:24;17.50;;;3.92;;
48881;SDS011;57063;51.406;-2.402;2024-02-16T19:26:54;21.45;;;2.35;;
48881;SDS011;57063;51.406;-2.402;2024-02-16T19:29:23;23.73;;;3.38;;
48881;SDS011;57063;51.406;-2.402;2024-02-16T19:31:49;27.10;;;4.15;;
48881;SDS011;57063;51.406;-2.402;2024-02-16T19:34:15;25.75;;;3.22;;
48881;SDS011;57063;51.406;-2.402;2024-02-16T19:36:42;23.55;;;3.15;;
48881;SDS011;57063;51.406;-2.402;2024-02-16T19:39:09;25.05;;;2.95;;
48881;SDS011;57063;51.406;-2.402;2024-02-16T19:41:44;14.45;;;2.60;;
48881;SDS011;57063;51.406;-2.402;2024-02-16T19:44:13;21.50;;;2.45;;
48881;SDS011;57063;51.406;-2.402;2024-02-16T19:46:44;18.45;;;3.78;;
48881;SDS011;57063;51.406;-2.402;2024-02-16T19:49:09;30.08;;;3.30;;
48881;SDS011;57063;51.406;-2.402;2024-02-16T19:51:35;19.60;;;3.83;;
48881;SDS011;57063;51.406;-2.402;2024-02-16T19:54:02;25.38;;;6.68;;
48881;SDS011;57063;51.406;-2.402;2024-02-16T19:56:28;22.85;;;4.68;;
48881;SDS011;57063;51.406;-2.402;2024-02-16T19:58:55;15.77;;;2.92;;
48881;SDS011;57063;51.406;-2.402;2024-02-16T20:01:21;18.83;;;3.53;;
48881;SDS011;57063;51.406;-2.402;2024-02-16T20:03:47;17.17;;;2.95;;
48881;SDS011;57063;51.406;-2.402;2024-02-16T20:06:14;14.75;;;2.35;;
48881;SDS011;57063;51.406;-2.402;2024-02-16T20:08:41;15.90;;;4.18;;
48881;SDS011;57063;51.406;-2.402;2024-02-16T20:11:07;28.00;;;3.55;;
48881;SDS011;57063;51.406;-2.402;2024-02-16T20:13:34;10.68;;;2.78;;
48881;SDS011;57063;51.406;-2.402;2024-02-16T20:16:00;14.48;;;3.47;;
48881;SDS011;57063;51.406;-2.402;2024-02-16T20:18:29;19.80;;;4.47;;
48881;SDS011;57063;51.406;-2.402;2024-02-16T20:20:57;13.63;;;3.58;;
48881;SDS011;57063;51.406;-2.402;2024-02-16T20:23:24;14.65;;;3.38;;
48881;SDS011;57063;51.406;-2.402;2024-02-16T20:25:50;17.33;;;3.60;;
48881;SDS011;57063;51.406;-2.402;2024-02-16T20:28:15;18.15;;;2.92;;
48881;SDS011;57063;51.406;-2.402;2024-02-16T20:30:41;16.23;;;2.80;;
48881;SDS011;57063;51.406;-2.402;2024-02-16T20:33:08;12.20;;;1.95;;
48881;SDS011;57063;51.406;-2.402;2024-02-16T20:35:35;14.45;;;2.00;;
48881;SDS011;57063;51.406;-2.402;2024-02-16T20:38:02;9.40;;;1.95;;
48881;SDS011;57063;51.406;-2.402;2024-02-16T20:40:28;23.75;;;3.03;;
48881;SDS011;57063;51.406;-2.402;2024-02-16T20:42:54;17.45;;;3.22;;
48881;SDS011;57063;51.406;-2.402;2024-02-16T20:45:24;11.80;;;2.22;;
48881;SDS011;57063;51.406;-2.402;2024-02-16T20:47:50;14.23;;;3.17;;
48881;SDS011;57063;51.406;-2.402;2024-02-16T20:50:17;13.80;;;2.78;;
48881;SDS011;57063;51.406;-2.402;2024-02-16T20:52:43;17.83;;;3.47;;
48881;SDS011;57063;51.406;-2.402;2024-02-16T20:55:09;18.60;;;3.75;;
48881;SDS011;57063;51.406;-2.402;2024-02-16T20:57:35;15.57;;;3.13;;
48881;SDS011;57063;51.406;-2.402;2024-02-16T21:00:02;13.75;;;2.78;;
48881;SDS011;57063;51.406;-2.402;2024-02-16T21:02:33;20.13;;;3.38;;
48881;SDS011;57063;51.406;-2.402;2024-02-16T21:05:00;18.30;;;3.38;;
48881;SDS011;57063;51.406;-2.402;2024-02-16T21:07:26;24.48;;;4.32;;
48881;SDS011;57063;51.406;-2.402;2024-02-16T21:09:52;14.82;;;2.50;;
48881;SDS011;57063;51.406;-2.402;2024-02-16T21:12:18;11.05;;;2.25;;
48881;SDS011;57063;51.406;-2.402;2024-02-16T21:14:44;11.68;;;2.10;;
48881;SDS011;57063;51.406;-2.402;2024-02-16T21:17:10;14.63;;;1.90;;
48881;SDS011;57063;51.406;-2.402;2024-02-16T21:19:36;20.58;;;2.75;;
48881;SDS011;57063;51.406;-2.402;2024-02-16T21:22:04;12.18;;;2.30;;
48881;SDS011;57063;51.406;-2.402;2024-02-16T21:24:29;9.82;;;2.78;;
48881;SDS011;57063;51.406;-2.402;2024-02-16T21:26:56;22.10;;;3.03;;
48881;SDS011;57063;51.406;-2.402;2024-02-16T21:29:23;19.45;;;3.20;;
48881;SDS011;57063;51.406;-2.402;2024-02-16T21:31:49;14.75;;;5.05;;
48881;SDS011;57063;51.406;-2.402;2024-02-16T21:34:15;12.18;;;2.67;;
48881;SDS011;57063;51.406;-2.402;2024-02-16T21:36:41;6.55;;;1.92;;
48881;SDS011;57063;51.406;-2.402;2024-02-16T21:39:08;11.52;;;2.17;;
48881;SDS011;57063;51.406;-2.402;2024-02-16T21:41:34;12.25;;;2.20;;
48881;SDS011;57063;51.406;-2.402;2024-02-16T21:44:00;14.88;;;2.42;;
48881;SDS011;57063;51.406;-2.402;2024-02-16T21:46:32;16.98;;;2.38;;
48881;SDS011;57063;51.406;-2.402;2024-02-16T21:49:03;11.40;;;2.50;;
48881;SDS011;57063;51.406;-2.402;2024-02-16T21:51:31;8.90;;;2.50;;
48881;SDS011;57063;51.406;-2.402;2024-02-16T21:54:00;14.00;;;2.22;;
48881;SDS011;57063;51.406;-2.402;2024-02-16T21:56:26;13.85;;;1.83;;
48881;SDS011;57063;51.406;-2.402;2024-02-16T21:58:52;12.68;;;2.08;;
48881;SDS011;57063;51.406;-2.402;2024-02-16T22:01:20;11.95;;;2.63;;
48881;SDS011;57063;51.406;-2.402;2024-02-16T22:03:46;7.32;;;1.73;;
48881;SDS011;57063;51.406;-2.402;2024-02-16T22:06:34;13.25;;;2.42;;
48881;SDS011;57063;51.406;-2.402;2024-02-16T22:08:59;12.13;;;2.35;;
48881;SDS011;57063;51.406;-2.402;2024-02-16T22:11:26;10.98;;;2.38;;
48881;SDS011;57063;51.406;-2.402;2024-02-16T22:13:52;11.40;;;2.15;;
48881;SDS011;57063;51.406;-2.402;2024-02-16T22:16:18;10.63;;;1.73;;
48881;SDS011;57063;51.406;-2.402;2024-02-16T22:18:44;18.38;;;2.63;;
48881;SDS011;57063;51.406;-2.402;2024-02-16T22:21:11;11.65;;;1.75;;
48881;SDS011;57063;51.406;-2.402;2024-02-16T22:23:38;11.35;;;2.03;;
48881;SDS011;57063;51.406;-2.402;2024-02-16T22:26:06;14.02;;;2.30;;
48881;SDS011;57063;51.406;-2.402;2024-02-16T22:28:35;13.13;;;3.90;;
48881;SDS011;57063;51.406;-2.402;2024-02-16T22:31:02;11.52;;;3.28;;
48881;SDS011;57063;51.406;-2.402;2024-02-16T22:33:28;9.80;;;2.42;;
48881;SDS011;57063;51.406;-2.402;2024-02-16T22:35:57;14.43;;;2.33;;
48881;SDS011;57063;51.406;-2.402;2024-02-16T22:38:23;10.32;;;2.10;;
48881;SDS011;57063;51.406;-2.402;2024-02-16T22:40:50;13.63;;;2.00;;
48881;SDS011;57063;51.406;-2.402;2024-02-16T22:43:16;6.72;;;1.60;;
48881;SDS011;57063;51.406;-2.402;2024-02-16T22:45:42;9.60;;;2.00;;
48881;SDS011;57063;51.406;-2.402;2024-02-16T22:48:09;4.93;;;1.80;;
48881;SDS011;57063;51.406;-2.402;2024-02-16T22:50:38;6.95;;;1.60;;
48881;SDS011;57063;51.406;-2.402;2024-02-16T22:53:08;8.35;;;2.17;;
48881;SDS011;57063;51.406;-2.402;2024-02-16T22:55:34;12.70;;;2.10;;
48881;SDS011;57063;51.406;-2.402;2024-02-16T22:58:01;13.65;;;2.80;;
48881;SDS011;57063;51.406;-2.402;2024-02-16T23:00:27;12.35;;;2.80;;
48881;SDS011;57063;51.406;-2.402;2024-02-16T23:02:58;7.78;;;1.88;;
48881;SDS011;57063;51.406;-2.402;2024-02-16T23:05:24;16.30;;;2.65;;
48881;SDS011;57063;51.406;-2.402;2024-02-16T23:07:51;6.97;;;1.70;;
48881;SDS011;57063;51.406;-2.402;2024-02-16T23:10:17;6.75;;;2.13;;
48881;SDS011;57063;51.406;-2.402;2024-02-16T23:12:43;13.70;;;2.47;;
48881;SDS011;57063;51.406;-2.402;2024-02-16T23:15:12;7.00;;;2.15;;
48881;SDS011;57063;51.406;-2.402;2024-02-16T23:17:40;7.70;;;1.90;;
48881;SDS011;57063;51.406;-2.402;2024-02-16T23:20:09;8.93;;;1.77;;
48881;SDS011;57063;51.406;-2.402;2024-02-16T23:25:28;7.50;;;1.92;;
48881;SDS011;57063;51.406;-2.402;2024-02-16T23:27:55;11.13;;;2.63;;
48881;SDS011;57063;51.406;-2.402;2024-02-16T23:30:22;9.85;;;2.00;;
48881;SDS011;57063;51.406;-2.402;2024-02-16T23:32:49;10.20;;;2.33;;
48881;SDS011;57063;51.406;-2.402;2024-02-16T23:35:14;9.10;;;2.42;;
48881;SDS011;57063;51.406;-2.402;2024-02-16T23:37:40;6.88;;;2.05;;
48881;SDS011;57063;51.406;-2.402;2024-02-16T23:40:08;9.45;;;2.38;;
48881;SDS011;57063;51.406;-2.402;2024-02-16T23:42:34;7.43;;;2.70;;
48881;SDS011;57063;51.406;-2.402;2024-02-16T23:45:00;7.72;;;2.50;;
48881;SDS011;57063;51.406;-2.402;2024-02-16T23:47:26;16.58;;;2.40;;
48881;SDS011;57063;51.406;-2.402;2024-02-16T23:49:52;7.97;;;2.08;;
48881;SDS011;57063;51.406;-2.402;2024-02-16T23:52:17;9.18;;;2.20;;
48881;SDS011;57063;51.406;-2.402;2024-02-16T23:54:44;10.50;;;2.08;;
48881;SDS011;57063;51.406;-2.402;2024-02-16T23:57:10;8.10;;;1.80;;
48881;SDS011;57063;51.406;-2.402;2024-02-16T23:59:36;6.32;;;1.88;;
